This is the latest recevied weather packets stored in our database for station/object KM4KBD. If no packets are shown the sender has not sent any weather packets the latest 10 day(s).
| Time | Temp. | Humidity | Pressure | Rain* | Wind** | Luminosity | Snow |
|---|---|---|---|---|---|---|---|
| 1778111250 | 14.44° C | 84% | 1018.9 hPa | 0 mm | - | 5 W/m² | - |
| 1778110947 | 14.44° C | 84% | 1018.8 hPa | 0 mm | - | 6 W/m² | - |
| 1778110644 | 14.44° C | 83% | 1019 hPa | 0 mm | - | 7 W/m² | - |
| 1778110341 | 14.44° C | 82% | 1018.7 hPa | 0 mm | - | 13 W/m² | - |
| 1778110037 | 14.44° C | 81% | 1019.2 hPa | 0 mm | - | 12 W/m² | - |
| 1778109732 | 14.44° C | 82% | 1019.7 hPa | 0 mm | - | 8 W/m² | - |
| 1778109430 | 15° C | 82% | 1019.3 hPa | 0 mm | - | 9 W/m² | - |
| 1778109129 | 15° C | 79% | 1017.9 hPa | 0 mm | - | 41 W/m² | - |
| 1778108824 | 15° C | 81% | 1018 hPa | 0 mm | - | 40 W/m² | - |
| 1778108521 | 15° C | 81% | 1018.3 hPa | 0 mm | - | 37 W/m² | - |
| 1778108218 | 15° C | 82% | 1018.1 hPa | 0 mm | - | 36 W/m² | - |
| 1778107915 | 15° C | 79% | 1018.6 hPa | 0 mm | - | 29 W/m² | - |
| 1778107611 | 15° C | 79% | 1019.2 hPa | 0 mm | - | 37 W/m² | - |
| 1778107308 | 15° C | 80% | 1019.5 hPa | 0 mm | - | 17 W/m² | - |
| 1778107005 | 15.56° C | 76% | 1018.9 hPa | 0 mm | - | 31 W/m² | - |
| 1778106700 | 15.56° C | 77% | 1018.6 hPa | 0 mm | - | 42 W/m² | - |
| 1778106398 | 15.56° C | 75% | 1018.7 hPa | 0 mm | - | 42 W/m² | - |
| 1778106093 | 15.56° C | 75% | 1018.3 hPa | 0 mm | - | 47 W/m² | - |
| 1778105792 | 15.56° C | 75% | 1017.8 hPa | 0 mm | - | 83 W/m² | - |
| 1778105489 | 15.56° C | 76% | 1018.1 hPa | 0 mm | - | 64 W/m² | - |
| 1778105186 | 15.56° C | 74% | 1018.5 hPa | 0 mm | - | 77 W/m² | - |
| 1778104881 | 15.56° C | 74% | 1018.9 hPa | 0 mm | - | 71 W/m² | - |
| 1778104578 | 15.56° C | 76% | 1018.5 hPa | 0 mm | - | 126 W/m² | - |
| 1778104273 | 15.56° C | 75% | 1018.8 hPa | 0 mm | - | 94 W/m² | - |
| 1778103971 | 15.56° C | 76% | 1018.8 hPa | 0 mm | - | 35 W/m² | - |
* Rain latest hour (hover to see other rain measurements)
** Current wind speed in m/s (hover to see current wind gust speed)